sensor_id;sensor_type;location;lat;lon;timestamp;P1;durP1;ratioP1;P2;durP2;ratioP2
55609;SDS011;41486;52.502;13.486;2023-07-02T00:00:43;1.15;;;0.85;;
55609;SDS011;41486;52.502;13.486;2023-07-02T00:03:11;1.35;;;1.25;;
55609;SDS011;41486;52.502;13.486;2023-07-02T00:05:39;1.17;;;1.08;;
55609;SDS011;41486;52.502;13.486;2023-07-02T00:08:07;1.55;;;1.10;;
55609;SDS011;41486;52.502;13.486;2023-07-02T00:10:35;1.00;;;0.90;;
55609;SDS011;41486;52.502;13.486;2023-07-02T00:13:03;2.17;;;1.00;;
55609;SDS011;41486;52.502;13.486;2023-07-02T00:15:33;1.60;;;1.00;;
55609;SDS011;41486;52.502;13.486;2023-07-02T00:18:03;2.55;;;1.08;;
55609;SDS011;41486;52.502;13.486;2023-07-02T00:20:32;1.17;;;1.05;;
55609;SDS011;41486;52.502;13.486;2023-07-02T00:23:01;1.75;;;1.13;;
55609;SDS011;41486;52.502;13.486;2023-07-02T00:25:29;1.10;;;0.90;;
55609;SDS011;41486;52.502;13.486;2023-07-02T00:27:58;2.60;;;1.10;;
55609;SDS011;41486;52.502;13.486;2023-07-02T00:30:26;1.25;;;1.10;;
55609;SDS011;41486;52.502;13.486;2023-07-02T00:32:57;2.25;;;1.00;;
55609;SDS011;41486;52.502;13.486;2023-07-02T00:35:25;2.42;;;1.17;;
55609;SDS011;41486;52.502;13.486;2023-07-02T00:37:53;1.17;;;0.98;;
55609;SDS011;41486;52.502;13.486;2023-07-02T00:40:21;1.48;;;1.17;;
55609;SDS011;41486;52.502;13.486;2023-07-02T00:42:49;3.33;;;1.33;;
55609;SDS011;41486;52.502;13.486;2023-07-02T00:45:17;1.20;;;1.10;;
55609;SDS011;41486;52.502;13.486;2023-07-02T00:47:45;1.50;;;1.25;;
55609;SDS011;41486;52.502;13.486;2023-07-02T00:50:16;2.78;;;1.80;;
55609;SDS011;41486;52.502;13.486;2023-07-02T00:52:44;1.27;;;1.10;;
55609;SDS011;41486;52.502;13.486;2023-07-02T00:55:12;2.35;;;1.40;;
55609;SDS011;41486;52.502;13.486;2023-07-02T00:57:40;1.73;;;1.42;;
55609;SDS011;41486;52.502;13.486;2023-07-02T01:00:13;1.20;;;1.10;;
55609;SDS011;41486;52.502;13.486;2023-07-02T01:02:41;3.58;;;1.60;;
55609;SDS011;41486;52.502;13.486;2023-07-02T01:05:15;2.28;;;1.65;;
55609;SDS011;41486;52.502;13.486;2023-07-02T01:07:44;1.63;;;1.52;;
55609;SDS011;41486;52.502;13.486;2023-07-02T01:10:12;2.40;;;1.95;;
55609;SDS011;41486;52.502;13.486;2023-07-02T01:12:40;2.33;;;1.50;;
55609;SDS011;41486;52.502;13.486;2023-07-02T01:15:09;4.28;;;1.90;;
55609;SDS011;41486;52.502;13.486;2023-07-02T01:17:38;1.95;;;1.55;;
55609;SDS011;41486;52.502;13.486;2023-07-02T01:20:10;2.08;;;1.60;;
55609;SDS011;41486;52.502;13.486;2023-07-02T01:22:39;2.08;;;1.60;;
55609;SDS011;41486;52.502;13.486;2023-07-02T01:25:08;2.00;;;1.60;;
55609;SDS011;41486;52.502;13.486;2023-07-02T01:27:37;1.70;;;1.60;;
55609;SDS011;41486;52.502;13.486;2023-07-02T01:30:07;1.90;;;1.50;;
55609;SDS011;41486;52.502;13.486;2023-07-02T01:32:37;1.95;;;1.75;;
55609;SDS011;41486;52.502;13.486;2023-07-02T01:35:07;1.85;;;1.38;;
55609;SDS011;41486;52.502;13.486;2023-07-02T01:37:38;3.83;;;2.10;;
55609;SDS011;41486;52.502;13.486;2023-07-02T01:40:06;2.85;;;1.70;;
55609;SDS011;41486;52.502;13.486;2023-07-02T01:42:36;2.33;;;2.10;;
55609;SDS011;41486;52.502;13.486;2023-07-02T01:45:06;2.28;;;2.08;;
55609;SDS011;41486;52.502;13.486;2023-07-02T01:47:38;2.40;;;2.15;;
55609;SDS011;41486;52.502;13.486;2023-07-02T01:50:09;6.13;;;2.33;;
55609;SDS011;41486;52.502;13.486;2023-07-02T01:52:40;3.95;;;2.08;;
55609;SDS011;41486;52.502;13.486;2023-07-02T01:55:08;2.42;;;2.20;;
55609;SDS011;41486;52.502;13.486;2023-07-02T01:57:37;2.85;;;2.28;;
55609;SDS011;41486;52.502;13.486;2023-07-02T02:00:07;2.60;;;2.15;;
55609;SDS011;41486;52.502;13.486;2023-07-02T02:02:42;2.13;;;1.92;;
55609;SDS011;41486;52.502;13.486;2023-07-02T02:05:12;3.45;;;2.97;;
55609;SDS011;41486;52.502;13.486;2023-07-02T02:07:43;3.60;;;2.65;;
55609;SDS011;41486;52.502;13.486;2023-07-02T02:10:13;4.82;;;2.55;;
55609;SDS011;41486;52.502;13.486;2023-07-02T02:12:41;3.25;;;2.70;;
55609;SDS011;41486;52.502;13.486;2023-07-02T02:15:09;4.50;;;2.80;;
55609;SDS011;41486;52.502;13.486;2023-07-02T02:17:40;2.90;;;2.53;;
55609;SDS011;41486;52.502;13.486;2023-07-02T02:20:09;3.25;;;2.83;;
55609;SDS011;41486;52.502;13.486;2023-07-02T02:22:38;4.20;;;3.25;;
55609;SDS011;41486;52.502;13.486;2023-07-02T02:25:09;3.38;;;3.08;;
55609;SDS011;41486;52.502;13.486;2023-07-02T02:27:38;4.97;;;3.50;;
55609;SDS011;41486;52.502;13.486;2023-07-02T02:30:08;4.85;;;3.10;;
55609;SDS011;41486;52.502;13.486;2023-07-02T02:32:37;4.28;;;2.90;;
55609;SDS011;41486;52.502;13.486;2023-07-02T02:35:08;5.32;;;2.28;;
55609;SDS011;41486;52.502;13.486;2023-07-02T02:37:38;4.18;;;2.50;;
55609;SDS011;41486;52.502;13.486;2023-07-02T02:40:10;2.90;;;2.42;;
55609;SDS011;41486;52.502;13.486;2023-07-02T02:42:40;2.65;;;1.98;;
55609;SDS011;41486;52.502;13.486;2023-07-02T02:45:08;4.18;;;2.70;;
55609;SDS011;41486;52.502;13.486;2023-07-02T02:47:36;3.72;;;2.35;;
55609;SDS011;41486;52.502;13.486;2023-07-02T02:50:05;4.45;;;2.63;;
55609;SDS011;41486;52.502;13.486;2023-07-02T02:52:36;2.70;;;2.20;;
55609;SDS011;41486;52.502;13.486;2023-07-02T02:55:05;3.47;;;2.38;;
55609;SDS011;41486;52.502;13.486;2023-07-02T02:57:37;4.47;;;2.30;;
55609;SDS011;41486;52.502;13.486;2023-07-02T03:00:05;4.72;;;2.67;;
55609;SDS011;41486;52.502;13.486;2023-07-02T03:02:38;2.53;;;1.90;;
55609;SDS011;41486;52.502;13.486;2023-07-02T03:05:07;2.90;;;2.00;;
55609;SDS011;41486;52.502;13.486;2023-07-02T03:07:35;2.97;;;2.67;;
55609;SDS011;41486;52.502;13.486;2023-07-02T03:10:04;3.42;;;2.60;;
55609;SDS011;41486;52.502;13.486;2023-07-02T03:12:34;3.33;;;2.30;;
55609;SDS011;41486;52.502;13.486;2023-07-02T03:15:06;5.63;;;2.30;;
55609;SDS011;41486;52.502;13.486;2023-07-02T03:17:36;3.25;;;2.58;;
55609;SDS011;41486;52.502;13.486;2023-07-02T03:20:05;3.40;;;2.47;;
55609;SDS011;41486;52.502;13.486;2023-07-02T03:22:37;3.70;;;2.20;;
55609;SDS011;41486;52.502;13.486;2023-07-02T03:25:05;3.78;;;2.15;;
55609;SDS011;41486;52.502;13.486;2023-07-02T03:27:34;3.60;;;2.30;;
55609;SDS011;41486;52.502;13.486;2023-07-02T03:30:06;3.10;;;2.40;;
55609;SDS011;41486;52.502;13.486;2023-07-02T03:32:35;2.65;;;2.20;;
55609;SDS011;41486;52.502;13.486;2023-07-02T03:35:03;2.75;;;2.30;;
55609;SDS011;41486;52.502;13.486;2023-07-02T03:37:32;1.88;;;1.67;;
55609;SDS011;41486;52.502;13.486;2023-07-02T03:40:00;2.45;;;2.25;;
55609;SDS011;41486;52.502;13.486;2023-07-02T03:42:29;5.22;;;2.20;;
55609;SDS011;41486;52.502;13.486;2023-07-02T03:44:57;2.50;;;2.03;;
55609;SDS011;41486;52.502;13.486;2023-07-02T03:47:27;3.15;;;1.83;;
55609;SDS011;41486;52.502;13.486;2023-07-02T03:49:55;1.90;;;1.50;;
55609;SDS011;41486;52.502;13.486;2023-07-02T03:52:23;3.13;;;1.95;;
55609;SDS011;41486;52.502;13.486;2023-07-02T03:54:52;3.90;;;2.17;;
55609;SDS011;41486;52.502;13.486;2023-07-02T03:57:20;1.77;;;1.67;;
55609;SDS011;41486;52.502;13.486;2023-07-02T03:59:48;3.50;;;1.88;;
55609;SDS011;41486;52.502;13.486;2023-07-02T04:02:18;1.90;;;1.70;;
55609;SDS011;41486;52.502;13.486;2023-07-02T04:04:47;3.45;;;1.88;;
55609;SDS011;41486;52.502;13.486;2023-07-02T04:07:16;1.63;;;1.52;;
55609;SDS011;41486;52.502;13.486;2023-07-02T04:09:44;2.40;;;1.83;;
55609;SDS011;41486;52.502;13.486;2023-07-02T04:12:13;1.90;;;1.58;;
55609;SDS011;41486;52.502;13.486;2023-07-02T04:14:41;2.40;;;1.50;;
55609;SDS011;41486;52.502;13.486;2023-07-02T04:17:09;2.17;;;1.50;;
55609;SDS011;41486;52.502;13.486;2023-07-02T04:19:37;4.05;;;1.80;;
55609;SDS011;41486;52.502;13.486;2023-07-02T04:22:08;1.77;;;1.63;;
55609;SDS011;41486;52.502;13.486;2023-07-02T04:24:36;3.08;;;1.98;;
55609;SDS011;41486;52.502;13.486;2023-07-02T04:27:07;2.78;;;1.35;;
55609;SDS011;41486;52.502;13.486;2023-07-02T04:29:55;1.73;;;1.63;;
55609;SDS011;41486;52.502;13.486;2023-07-02T04:32:26;2.42;;;1.77;;
55609;SDS011;41486;52.502;13.486;2023-07-02T04:34:55;3.55;;;1.70;;
55609;SDS011;41486;52.502;13.486;2023-07-02T04:37:24;2.70;;;2.38;;
55609;SDS011;41486;52.502;13.486;2023-07-02T04:39:54;4.55;;;2.20;;
55609;SDS011;41486;52.502;13.486;2023-07-02T04:42:22;1.92;;;1.58;;
55609;SDS011;41486;52.502;13.486;2023-07-02T04:44:54;7.60;;;1.77;;
55609;SDS011;41486;52.502;13.486;2023-07-02T04:47:22;2.20;;;1.60;;
55609;SDS011;41486;52.502;13.486;2023-07-02T04:49:52;3.03;;;1.90;;
55609;SDS011;41486;52.502;13.486;2023-07-02T04:52:22;3.92;;;2.08;;
55609;SDS011;41486;52.502;13.486;2023-07-02T04:54:52;2.95;;;1.50;;
55609;SDS011;41486;52.502;13.486;2023-07-02T04:57:20;1.75;;;1.63;;
55609;SDS011;41486;52.502;13.486;2023-07-02T04:59:48;2.47;;;1.67;;
55609;SDS011;41486;52.502;13.486;2023-07-02T05:02:17;3.78;;;1.60;;
55609;SDS011;41486;52.502;13.486;2023-07-02T05:04:45;3.33;;;1.88;;
55609;SDS011;41486;52.502;13.486;2023-07-02T05:07:15;1.98;;;1.60;;
55609;SDS011;41486;52.502;13.486;2023-07-02T05:09:44;2.20;;;1.55;;
55609;SDS011;41486;52.502;13.486;2023-07-02T05:12:13;1.90;;;1.70;;
55609;SDS011;41486;52.502;13.486;2023-07-02T05:14:42;3.88;;;1.90;;
55609;SDS011;41486;52.502;13.486;2023-07-02T05:17:12;2.92;;;1.80;;
55609;SDS011;41486;52.502;13.486;2023-07-02T05:19:44;3.97;;;1.40;;
55609;SDS011;41486;52.502;13.486;2023-07-02T05:22:13;3.00;;;1.80;;
55609;SDS011;41486;52.502;13.486;2023-07-02T05:24:45;4.45;;;1.65;;
55609;SDS011;41486;52.502;13.486;2023-07-02T05:27:15;3.63;;;1.50;;
55609;SDS011;41486;52.502;13.486;2023-07-02T05:29:43;1.92;;;1.45;;
55609;SDS011;41486;52.502;13.486;2023-07-02T05:32:11;4.35;;;1.60;;
55609;SDS011;41486;52.502;13.486;2023-07-02T05:34:39;3.10;;;1.33;;
55609;SDS011;41486;52.502;13.486;2023-07-02T05:37:07;2.35;;;1.70;;
55609;SDS011;41486;52.502;13.486;2023-07-02T05:39:35;2.90;;;2.40;;
55609;SDS011;41486;52.502;13.486;2023-07-02T05:42:03;3.35;;;1.30;;
55609;SDS011;41486;52.502;13.486;2023-07-02T05:44:33;2.35;;;1.70;;
55609;SDS011;41486;52.502;13.486;2023-07-02T05:47:01;2.70;;;1.88;;
55609;SDS011;41486;52.502;13.486;2023-07-02T05:49:29;2.30;;;1.50;;
55609;SDS011;41486;52.502;13.486;2023-07-02T05:51:57;2.28;;;1.42;;
55609;SDS011;41486;52.502;13.486;2023-07-02T05:54:25;2.17;;;1.70;;
55609;SDS011;41486;52.502;13.486;2023-07-02T05:56:54;1.95;;;1.30;;
55609;SDS011;41486;52.502;13.486;2023-07-02T05:59:23;2.60;;;1.45;;
55609;SDS011;41486;52.502;13.486;2023-07-02T06:01:53;2.58;;;1.58;;
55609;SDS011;41486;52.502;13.486;2023-07-02T06:04:21;2.72;;;1.60;;
55609;SDS011;41486;52.502;13.486;2023-07-02T06:06:49;1.83;;;1.58;;
55609;SDS011;41486;52.502;13.486;2023-07-02T06:09:17;4.30;;;1.70;;
55609;SDS011;41486;52.502;13.486;2023-07-02T06:11:46;1.80;;;1.10;;
55609;SDS011;41486;52.502;13.486;2023-07-02T06:14:15;1.90;;;1.40;;
55609;SDS011;41486;52.502;13.486;2023-07-02T06:16:43;5.32;;;1.70;;
55609;SDS011;41486;52.502;13.486;2023-07-02T06:19:13;3.05;;;1.52;;
55609;SDS011;41486;52.502;13.486;2023-07-02T06:21:44;3.33;;;2.05;;
55609;SDS011;41486;52.502;13.486;2023-07-02T06:24:12;3.15;;;1.70;;
55609;SDS011;41486;52.502;13.486;2023-07-02T06:26:43;3.20;;;1.60;;
55609;SDS011;41486;52.502;13.486;2023-07-02T06:29:11;4.50;;;1.58;;
55609;SDS011;41486;52.502;13.486;2023-07-02T06:31:39;4.43;;;1.52;;
55609;SDS011;41486;52.502;13.486;2023-07-02T06:34:07;2.35;;;1.40;;
55609;SDS011;41486;52.502;13.486;2023-07-02T06:36:37;2.47;;;1.60;;
55609;SDS011;41486;52.502;13.486;2023-07-02T06:39:05;2.20;;;1.42;;
55609;SDS011;41486;52.502;13.486;2023-07-02T06:41:33;3.33;;;1.52;;
55609;SDS011;41486;52.502;13.486;2023-07-02T06:44:02;2.72;;;1.45;;
55609;SDS011;41486;52.502;13.486;2023-07-02T06:46:30;1.83;;;1.35;;
55609;SDS011;41486;52.502;13.486;2023-07-02T06:48:59;2.47;;;1.48;;
55609;SDS011;41486;52.502;13.486;2023-07-02T06:51:28;2.13;;;1.70;;
55609;SDS011;41486;52.502;13.486;2023-07-02T06:53:57;1.52;;;1.30;;
55609;SDS011;41486;52.502;13.486;2023-07-02T06:56:25;3.28;;;1.30;;
55609;SDS011;41486;52.502;13.486;2023-07-02T06:58:54;3.72;;;1.88;;
55609;SDS011;41486;52.502;13.486;2023-07-02T07:01:22;2.65;;;1.85;;
55609;SDS011;41486;52.502;13.486;2023-07-02T07:03:52;2.72;;;1.70;;
55609;SDS011;41486;52.502;13.486;2023-07-02T07:06:20;2.88;;;1.42;;
55609;SDS011;41486;52.502;13.486;2023-07-02T07:08:48;2.22;;;1.60;;
55609;SDS011;41486;52.502;13.486;2023-07-02T07:11:19;2.25;;;1.42;;
55609;SDS011;41486;52.502;13.486;2023-07-02T07:13:47;3.42;;;1.60;;
55609;SDS011;41486;52.502;13.486;2023-07-02T07:16:15;2.03;;;1.50;;
55609;SDS011;41486;52.502;13.486;2023-07-02T07:18:43;3.38;;;1.42;;
55609;SDS011;41486;52.502;13.486;2023-07-02T07:21:14;4.88;;;1.70;;
55609;SDS011;41486;52.502;13.486;2023-07-02T07:23:43;4.20;;;1.98;;
55609;SDS011;41486;52.502;13.486;2023-07-02T07:26:11;4.40;;;1.60;;
55609;SDS011;41486;52.502;13.486;2023-07-02T07:28:41;1.92;;;1.40;;
55609;SDS011;41486;52.502;13.486;2023-07-02T07:31:09;1.75;;;1.30;;
55609;SDS011;41486;52.502;13.486;2023-07-02T07:33:37;4.15;;;1.80;;
55609;SDS011;41486;52.502;13.486;2023-07-02T07:36:05;2.67;;;1.65;;
55609;SDS011;41486;52.502;13.486;2023-07-02T07:38:33;3.08;;;1.80;;
55609;SDS011;41486;52.502;13.486;2023-07-02T07:41:01;4.13;;;1.63;;
55609;SDS011;41486;52.502;13.486;2023-07-02T07:43:29;7.13;;;1.92;;
55609;SDS011;41486;52.502;13.486;2023-07-02T07:45:59;1.92;;;1.17;;
55609;SDS011;41486;52.502;13.486;2023-07-02T07:48:27;3.25;;;1.70;;
55609;SDS011;41486;52.502;13.486;2023-07-02T07:50:55;1.85;;;1.25;;
55609;SDS011;41486;52.502;13.486;2023-07-02T07:53:23;3.13;;;1.73;;
55609;SDS011;41486;52.502;13.486;2023-07-02T07:55:52;2.97;;;1.70;;
55609;SDS011;41486;52.502;13.486;2023-07-02T07:58:23;2.35;;;1.60;;
55609;SDS011;41486;52.502;13.486;2023-07-02T08:00:52;1.33;;;1.13;;
55609;SDS011;41486;52.502;13.486;2023-07-02T08:03:21;4.00;;;1.58;;
55609;SDS011;41486;52.502;13.486;2023-07-02T08:05:52;4.28;;;1.80;;
55609;SDS011;41486;52.502;13.486;2023-07-02T08:08:20;2.58;;;1.45;;
55609;SDS011;41486;52.502;13.486;2023-07-02T08:10:51;3.95;;;1.65;;
55609;SDS011;41486;52.502;13.486;2023-07-02T08:13:20;2.25;;;1.55;;
55609;SDS011;41486;52.502;13.486;2023-07-02T08:15:50;1.50;;;1.20;;
55609;SDS011;41486;52.502;13.486;2023-07-02T08:18:18;2.63;;;1.88;;
55609;SDS011;41486;52.502;13.486;2023-07-02T08:20:47;2.85;;;1.77;;
55609;SDS011;41486;52.502;13.486;2023-07-02T08:23:16;2.60;;;1.88;;
55609;SDS011;41486;52.502;13.486;2023-07-02T08:25:46;3.65;;;2.08;;
55609;SDS011;41486;52.502;13.486;2023-07-02T08:28:15;5.10;;;1.70;;
55609;SDS011;41486;52.502;13.486;2023-07-02T08:30:43;2.28;;;1.70;;
55609;SDS011;41486;52.502;13.486;2023-07-02T08:33:12;6.53;;;1.77;;
55609;SDS011;41486;52.502;13.486;2023-07-02T08:35:40;3.28;;;1.70;;
55609;SDS011;41486;52.502;13.486;2023-07-02T08:38:10;6.32;;;2.00;;
55609;SDS011;41486;52.502;13.486;2023-07-02T08:40:41;3.03;;;1.40;;
55609;SDS011;41486;52.502;13.486;2023-07-02T08:43:09;4.47;;;1.92;;
55609;SDS011;41486;52.502;13.486;2023-07-02T08:45:40;1.90;;;1.50;;
55609;SDS011;41486;52.502;13.486;2023-07-02T08:48:08;3.88;;;1.90;;
55609;SDS011;41486;52.502;13.486;2023-07-02T08:50:37;4.05;;;1.80;;
55609;SDS011;41486;52.502;13.486;2023-07-02T08:53:06;3.75;;;1.88;;
55609;SDS011;41486;52.502;13.486;2023-07-02T08:55:36;2.83;;;1.77;;
55609;SDS011;41486;52.502;13.486;2023-07-02T08:58:06;3.75;;;2.03;;
55609;SDS011;41486;52.502;13.486;2023-07-02T09:00:34;3.17;;;1.90;;
55609;SDS011;41486;52.502;13.486;2023-07-02T09:03:11;3.28;;;1.85;;
55609;SDS011;41486;52.502;13.486;2023-07-02T09:05:50;4.75;;;1.83;;
55609;SDS011;41486;52.502;13.486;2023-07-02T09:08:22;3.22;;;1.63;;
55609;SDS011;41486;52.502;13.486;2023-07-02T09:10:52;4.25;;;2.45;;
55609;SDS011;41486;52.502;13.486;2023-07-02T09:13:21;2.13;;;1.42;;
55609;SDS011;41486;52.502;13.486;2023-07-02T09:15:49;3.33;;;2.13;;
55609;SDS011;41486;52.502;13.486;2023-07-02T09:18:18;2.80;;;1.77;;
55609;SDS011;41486;52.502;13.486;2023-07-02T09:20:50;2.90;;;1.95;;
55609;SDS011;41486;52.502;13.486;2023-07-02T09:23:18;3.83;;;1.92;;
55609;SDS011;41486;52.502;13.486;2023-07-02T09:25:47;4.32;;;2.47;;
55609;SDS011;41486;52.502;13.486;2023-07-02T09:28:18;3.13;;;1.55;;
55609;SDS011;41486;52.502;13.486;2023-07-02T09:30:53;2.85;;;1.77;;
55609;SDS011;41486;52.502;13.486;2023-07-02T09:33:23;3.47;;;2.10;;
55609;SDS011;41486;52.502;13.486;2023-07-02T09:35:51;3.22;;;2.08;;
55609;SDS011;41486;52.502;13.486;2023-07-02T09:38:19;4.90;;;2.70;;
55609;SDS011;41486;52.502;13.486;2023-07-02T09:40:49;3.53;;;2.08;;
55609;SDS011;41486;52.502;13.486;2023-07-02T09:43:23;5.68;;;2.25;;
55609;SDS011;41486;52.502;13.486;2023-07-02T09:45:52;6.80;;;2.30;;
55609;SDS011;41486;52.502;13.486;2023-07-02T09:48:23;4.35;;;2.25;;
55609;SDS011;41486;52.502;13.486;2023-07-02T09:50:54;6.47;;;2.60;;
55609;SDS011;41486;52.502;13.486;2023-07-02T09:53:27;4.18;;;2.10;;
55609;SDS011;41486;52.502;13.486;2023-07-02T09:55:56;4.80;;;2.30;;
55609;SDS011;41486;52.502;13.486;2023-07-02T09:58:26;5.35;;;2.25;;
55609;SDS011;41486;52.502;13.486;2023-07-02T10:00:54;6.45;;;2.60;;
55609;SDS011;41486;52.502;13.486;2023-07-02T10:03:30;5.85;;;2.40;;
55609;SDS011;41486;52.502;13.486;2023-07-02T10:06:02;3.47;;;2.03;;
55609;SDS011;41486;52.502;13.486;2023-07-02T10:08:32;5.72;;;2.40;;
55609;SDS011;41486;52.502;13.486;2023-07-02T10:11:07;5.90;;;2.50;;
55609;SDS011;41486;52.502;13.486;2023-07-02T10:13:45;5.95;;;2.53;;
55609;SDS011;41486;52.502;13.486;2023-07-02T10:16:26;4.82;;;2.80;;
55609;SDS011;41486;52.502;13.486;2023-07-02T10:18:54;4.85;;;2.22;;
55609;SDS011;41486;52.502;13.486;2023-07-02T10:21:22;4.60;;;2.28;;
55609;SDS011;41486;52.502;13.486;2023-07-02T10:23:51;5.72;;;2.30;;
55609;SDS011;41486;52.502;13.486;2023-07-02T10:26:19;4.97;;;2.05;;
55609;SDS011;41486;52.502;13.486;2023-07-02T10:28:58;5.15;;;2.30;;
55609;SDS011;41486;52.502;13.486;2023-07-02T10:31:27;5.47;;;3.08;;
55609;SDS011;41486;52.502;13.486;2023-07-02T10:33:55;6.32;;;2.60;;
55609;SDS011;41486;52.502;13.486;2023-07-02T10:36:25;5.03;;;2.60;;
55609;SDS011;41486;52.502;13.486;2023-07-02T10:38:54;7.05;;;2.92;;
55609;SDS011;41486;52.502;13.486;2023-07-02T10:41:32;6.05;;;2.88;;
55609;SDS011;41486;52.502;13.486;2023-07-02T10:44:09;8.43;;;2.50;;
55609;SDS011;41486;52.502;13.486;2023-07-02T10:46:44;4.50;;;2.67;;
55609;SDS011;41486;52.502;13.486;2023-07-02T10:49:12;5.10;;;2.85;;
55609;SDS011;41486;52.502;13.486;2023-07-02T10:51:40;9.07;;;2.70;;
55609;SDS011;41486;52.502;13.486;2023-07-02T10:54:08;3.85;;;2.20;;
55609;SDS011;41486;52.502;13.486;2023-07-02T10:56:36;4.13;;;2.67;;
55609;SDS011;41486;52.502;13.486;2023-07-02T10:59:04;5.68;;;2.75;;
55609;SDS011;41486;52.502;13.486;2023-07-02T11:01:34;6.55;;;2.38;;
55609;SDS011;41486;52.502;13.486;2023-07-02T11:04:03;6.80;;;3.15;;
55609;SDS011;41486;52.502;13.486;2023-07-02T11:06:32;8.05;;;3.10;;
55609;SDS011;41486;52.502;13.486;2023-07-02T11:09:00;4.10;;;2.53;;
55609;SDS011;41486;52.502;13.486;2023-07-02T11:11:30;7.03;;;3.30;;
55609;SDS011;41486;52.502;13.486;2023-07-02T11:13:58;5.60;;;3.17;;
55609;SDS011;41486;52.502;13.486;2023-07-02T11:16:27;5.60;;;2.60;;
55609;SDS011;41486;52.502;13.486;2023-07-02T11:19:08;6.50;;;2.55;;
55609;SDS011;41486;52.502;13.486;2023-07-02T11:21:37;8.15;;;3.17;;
55609;SDS011;41486;52.502;13.486;2023-07-02T11:24:06;11.98;;;3.60;;
55609;SDS011;41486;52.502;13.486;2023-07-02T11:26:36;6.05;;;2.67;;
55609;SDS011;41486;52.502;13.486;2023-07-02T11:29:06;5.90;;;2.95;;
55609;SDS011;41486;52.502;13.486;2023-07-02T11:31:36;6.72;;;2.55;;
55609;SDS011;41486;52.502;13.486;2023-07-02T11:34:12;4.60;;;3.15;;
55609;SDS011;41486;52.502;13.486;2023-07-02T11:36:44;6.47;;;3.00;;
55609;SDS011;41486;52.502;13.486;2023-07-02T11:39:12;3.65;;;2.58;;
55609;SDS011;41486;52.502;13.486;2023-07-02T11:41:42;5.75;;;3.13;;
55609;SDS011;41486;52.502;13.486;2023-07-02T11:44:14;9.40;;;2.67;;
55609;SDS011;41486;52.502;13.486;2023-07-02T11:46:43;4.15;;;2.30;;
55609;SDS011;41486;52.502;13.486;2023-07-02T11:49:12;6.60;;;3.08;;
55609;SDS011;41486;52.502;13.486;2023-07-02T11:51:41;5.45;;;2.50;;
55609;SDS011;41486;52.502;13.486;2023-07-02T11:54:14;4.93;;;3.00;;
55609;SDS011;41486;52.502;13.486;2023-07-02T11:56:43;5.05;;;3.42;;
55609;SDS011;41486;52.502;13.486;2023-07-02T11:59:11;4.07;;;2.47;;
55609;SDS011;41486;52.502;13.486;2023-07-02T12:01:39;5.35;;;2.83;;
55609;SDS011;41486;52.502;13.486;2023-07-02T12:04:09;5.93;;;2.50;;
55609;SDS011;41486;52.502;13.486;2023-07-02T12:06:40;6.40;;;3.00;;
55609;SDS011;41486;52.502;13.486;2023-07-02T12:09:08;6.30;;;3.28;;
55609;SDS011;41486;52.502;13.486;2023-07-02T12:11:37;6.47;;;2.72;;
55609;SDS011;41486;52.502;13.486;2023-07-02T12:14:05;7.85;;;3.30;;
55609;SDS011;41486;52.502;13.486;2023-07-02T12:16:33;5.72;;;3.03;;
55609;SDS011;41486;52.502;13.486;2023-07-02T12:19:03;6.00;;;2.63;;
55609;SDS011;41486;52.502;13.486;2023-07-02T12:21:31;7.47;;;3.42;;
55609;SDS011;41486;52.502;13.486;2023-07-02T12:24:01;6.43;;;2.38;;
55609;SDS011;41486;52.502;13.486;2023-07-02T12:26:35;6.43;;;3.17;;
55609;SDS011;41486;52.502;13.486;2023-07-02T12:29:03;7.22;;;2.72;;
55609;SDS011;41486;52.502;13.486;2023-07-02T12:31:31;8.35;;;2.72;;
55609;SDS011;41486;52.502;13.486;2023-07-02T12:33:59;5.43;;;2.42;;
55609;SDS011;41486;52.502;13.486;2023-07-02T12:36:30;6.10;;;2.85;;
55609;SDS011;41486;52.502;13.486;2023-07-02T12:38:58;7.90;;;2.60;;
55609;SDS011;41486;52.502;13.486;2023-07-02T12:41:27;6.25;;;3.35;;
55609;SDS011;41486;52.502;13.486;2023-07-02T12:43:56;6.07;;;3.28;;
55609;SDS011;41486;52.502;13.486;2023-07-02T12:46:27;4.57;;;2.78;;
55609;SDS011;41486;52.502;13.486;2023-07-02T12:48:56;7.28;;;3.00;;
55609;SDS011;41486;52.502;13.486;2023-07-02T12:51:24;7.25;;;3.28;;
55609;SDS011;41486;52.502;13.486;2023-07-02T12:53:52;6.20;;;3.13;;
55609;SDS011;41486;52.502;13.486;2023-07-02T12:56:22;8.27;;;2.70;;
55609;SDS011;41486;52.502;13.486;2023-07-02T12:58:52;9.77;;;3.30;;
55609;SDS011;41486;52.502;13.486;2023-07-02T13:01:20;3.85;;;2.95;;
55609;SDS011;41486;52.502;13.486;2023-07-02T13:03:48;5.15;;;2.83;;
55609;SDS011;41486;52.502;13.486;2023-07-02T13:06:16;6.45;;;3.00;;
55609;SDS011;41486;52.502;13.486;2023-07-02T13:08:44;6.45;;;2.63;;
55609;SDS011;41486;52.502;13.486;2023-07-02T13:11:13;6.03;;;2.90;;
55609;SDS011;41486;52.502;13.486;2023-07-02T13:13:41;8.43;;;2.97;;
55609;SDS011;41486;52.502;13.486;2023-07-02T13:16:11;7.60;;;2.92;;
55609;SDS011;41486;52.502;13.486;2023-07-02T13:18:39;7.40;;;2.38;;
55609;SDS011;41486;52.502;13.486;2023-07-02T13:21:07;5.95;;;3.17;;
55609;SDS011;41486;52.502;13.486;2023-07-02T13:23:35;5.05;;;2.20;;
55609;SDS011;41486;52.502;13.486;2023-07-02T13:26:03;5.95;;;3.15;;
55609;SDS011;41486;52.502;13.486;2023-07-02T13:28:31;5.05;;;3.38;;
55609;SDS011;41486;52.502;13.486;2023-07-02T13:30:59;5.57;;;2.90;;
55609;SDS011;41486;52.502;13.486;2023-07-02T13:33:29;7.22;;;2.92;;
55609;SDS011;41486;52.502;13.486;2023-07-02T13:35:57;10.02;;;4.85;;
55609;SDS011;41486;52.502;13.486;2023-07-02T13:38:25;6.43;;;2.85;;
55609;SDS011;41486;52.502;13.486;2023-07-02T13:40:54;7.80;;;3.33;;
55609;SDS011;41486;52.502;13.486;2023-07-02T13:43:22;5.22;;;2.70;;
55609;SDS011;41486;52.502;13.486;2023-07-02T13:45:50;5.72;;;2.65;;
55609;SDS011;41486;52.502;13.486;2023-07-02T13:48:19;8.00;;;3.30;;
55609;SDS011;41486;52.502;13.486;2023-07-02T13:50:48;6.70;;;2.97;;
55609;SDS011;41486;52.502;13.486;2023-07-02T13:53:17;6.15;;;3.20;;
55609;SDS011;41486;52.502;13.486;2023-07-02T13:55:45;7.80;;;3.22;;
55609;SDS011;41486;52.502;13.486;2023-07-02T13:58:14;8.52;;;3.33;;
55609;SDS011;41486;52.502;13.486;2023-07-02T14:00:56;4.63;;;2.85;;
55609;SDS011;41486;52.502;13.486;2023-07-02T14:03:25;4.70;;;2.53;;
55609;SDS011;41486;52.502;13.486;2023-07-02T14:05:53;6.45;;;2.42;;
55609;SDS011;41486;52.502;13.486;2023-07-02T14:08:22;5.13;;;2.55;;
55609;SDS011;41486;52.502;13.486;2023-07-02T14:10:50;5.95;;;2.75;;
55609;SDS011;41486;52.502;13.486;2023-07-02T14:13:18;5.30;;;2.72;;
55609;SDS011;41486;52.502;13.486;2023-07-02T14:15:46;5.93;;;2.80;;
55609;SDS011;41486;52.502;13.486;2023-07-02T14:18:17;7.00;;;3.50;;
55609;SDS011;41486;52.502;13.486;2023-07-02T14:20:45;5.53;;;3.00;;
55609;SDS011;41486;52.502;13.486;2023-07-02T14:23:13;8.60;;;2.83;;
55609;SDS011;41486;52.502;13.486;2023-07-02T14:25:41;6.28;;;3.38;;
55609;SDS011;41486;52.502;13.486;2023-07-02T14:28:10;5.03;;;3.13;;
55609;SDS011;41486;52.502;13.486;2023-07-02T14:30:38;6.90;;;2.20;;
55609;SDS011;41486;52.502;13.486;2023-07-02T14:33:06;7.75;;;2.97;;
55609;SDS011;41486;52.502;13.486;2023-07-02T14:35:35;9.45;;;3.70;;
55609;SDS011;41486;52.502;13.486;2023-07-02T14:38:04;4.88;;;3.03;;
55609;SDS011;41486;52.502;13.486;2023-07-02T14:40:32;6.18;;;2.63;;
55609;SDS011;41486;52.502;13.486;2023-07-02T14:43:00;5.72;;;3.28;;
55609;SDS011;41486;52.502;13.486;2023-07-02T14:45:30;6.03;;;3.03;;